x

Bodega Bay - 48nm Nnw Of San Francisco, Ca (46013) Weather Station

6:20am - Sun 20th Aug 2017 All times are PDT. -7 hours from GMT.

  • Wind
    11mph, 18mph gusts
  • Sea Temp 55°f
  • Air Temp 57°f
  • Sea Pressure 1011.5mb
  • Bodega Bay - 48nm Nnw Of San Francisco, Ca
  • Bodega Bay - 48nm Nnw Of San Francisco, Ca

More Historic Weather Station data

Upgrade to MSW Pro to gain access to the past 30 days of data for over 8000 Wavebouys and Weather Stations around the globe.

Join

Comparision Forecast

View Surf forecast
   
Sun 08/20 6:20am  -   -   -  11 18 mph 1011.5mb 55f 57f
6:10am  -   -   -  13 16 mph 1011.4mb 55f 57f
6:00am  -   -   -  11 16 mph 1011.3mb 55f 57f
5:50am 6ft 10s 8s 13 18 mph 1011.3mb 55f 57f
5:40am 6ft  -  8s 9 16 mph 1011.4mb 55f 57f
5:30am  -   -   -  11 16 mph 1011.4mb 55f 57f
5:20am  -   -   -  11 16 mph 1011.3mb 55f 57f
5:10am  -   -   -  11 16 mph 1011.3mb 55f 56f
5:00am  -   -   -  7 11 mph 1011.4mb 55f 56f
4:50am 7ft 11s 8s 4 9 mph 1011.4mb 55f 56f
4:40am  -   -   -  7 9 mph 1011.4mb 55f 56f
4:30am  -   -   -  4 9 mph 1011.3mb 55f 56f
4:20am  -   -   -  4 9 mph 1011.4mb 55f 55f
4:10am  -   -   -  4 9 mph 1011.3mb 55f 55f
4:00am  -   -   -  4 9 mph 1011.3mb 55f 55f
3:50am 7ft 10s 8s 4 9 mph 1011.3mb 55f 55f
3:40am  -   -   -  7 9 mph 1011.3mb 55f 54f
3:30am  -   -   -  7 9 mph 1011.4mb 55f 54f
3:20am  -   -   -  7 11 mph 1011.5mb 55f 54f
3:10am  -   -   -  9 16 mph 1011.5mb 55f 54f
3:00am  -   -   -  9 16 mph 1011.4mb 55f 54f
2:50am 7ft 9s 7s 9 13 mph 1011.5mb 55f 54f
2:40am 7ft  -  7s 4 9 mph 1011.6mb 55f 54f
2:30am  -   -   -  4 7 mph 1011.6mb 55f 54f
2:20am  -   -   -  4 9 mph 1011.7mb 55f 54f
2:10am  -   -   -  4 9 mph 1011.6mb 55f 54f
2:00am  -   -   -  4 9 mph 1011.7mb 55f 54f
1:50am 6.5ft 10s 8s 4 9 mph 1011.6mb 55f 54f
1:40am  -   -   -  2 7 mph 1011.6mb 55f 54f
1:30am  -   -   -  4 7 mph 1011.6mb 55f 54f
1:20am  -   -   -  4 9 mph 1011.7mb - 54f
1:10am  -   -   -  2 7 mph 1011.7mb 55f 54f
1:00am  -   -   -  2 7 mph 1011.7mb 55f 54f
12:50am 7ft 9s 8s 2 4 mph 1011.8mb 55f 54f
12:40am  -   -   -  2 7 mph 1011.7mb 55f 54f
12:30am  -   -   -  2 4 mph 1011.7mb 55f 54f
12:20am  -   -   -   -  2 mph 1011.7mb 55f 54f
12:10am  -   -   -   -  4 mph 1011.7mb 55f 54f
12:00am  -   -   -   -  4 mph 1011.6mb 55f 54f
Sat 08/19 11:50pm 7.5ft 9s 8s 2 4 mph 1011.6mb 55f 54f
11:40pm  -   -   -   -  4 mph 1011.7mb 55f 54f
11:30pm  -   -   -   -  4 mph 1011.7mb 55f 54f
11:20pm  -   -   -  2 4 mph 1011.6mb 55f 54f
11:10pm  -   -   -  2 7 mph 1011.7mb 55f 54f
11:00pm  -   -   -  4 7 mph 1011.8mb 55f 54f
10:30pm  -   -   -  7 9 mph 1011.8mb 55f 54f
10:20pm  -   -   -  7 9 mph 1011.8mb 55f 54f
10:10pm  -   -   -  7 9 mph 1011.9mb 55f 54f
10:00pm  -   -   -  7 9 mph 1011.9mb 55f 54f
9:50pm 7ft 9s 8s 7 9 mph 1011.9mb 55f 54f
9:40pm  -   -   -  7 9 mph 1011.9mb 55f 54f
9:30pm  -   -   -  7 11 mph 1011.8mb 55f 55f
9:20pm  -   -   -  7 9 mph 1011.8mb 55f 55f
9:10pm  -   -   -  7 11 mph 1011.8mb 55f 55f
9:00pm  -   -   -  7 11 mph 1011.7mb 55f 55f
8:50pm 6.5ft 9s 7s 7 13 mph 1011.6mb 55f 55f
8:40pm 6.5ft  -  7s 7 9 mph 1011.6mb 55f 55f
8:30pm  -   -   -  9 11 mph 1011.6mb 55f 55f
8:20pm  -   -   -  9 11 mph 1011.6mb 55f 55f
8:10pm  -   -   -  9 11 mph 1011.7mb 55f 55f
8:00pm  -   -   -  9 11 mph 1011.7mb 55f 55f
7:50pm 6ft 16s 8s 9 13 mph 1011.7mb 55f 55f
7:40pm  -   -   -  9 13 mph 1011.8mb 55f 54f
7:30pm  -   -   -  11 13 mph 1011.7mb 55f 54f
7:20pm  -   -   -  9 13 mph 1011.8mb 55f 54f
7:10pm  -   -   -  9 13 mph 1011.9mb 55f 55f
7:00pm  -   -   -  9 13 mph 1011.9mb 55f 54f
6:50pm 6ft 9s 8s 9 13 mph 1012mb 55f 54f
6:40pm 6ft  -  8s 7 11 mph 1011.9mb 55f 54f
6:30pm  -   -   -  9 13 mph 1011.9mb 56f 55f
6:20pm  -   -   -  9 11 mph 1011.8mb 55f 55f
6:10pm  -   -   -  9 11 mph 1011.9mb 55f 55f
6:00pm  -   -   -  9 11 mph 1012mb 55f 56f
5:50pm 6.5ft 9s 8s 9 13 mph 1012.1mb 56f 56f
5:40pm  -   -   -  9 13 mph 1012.1mb 56f 56f
5:30pm  -   -   -  9 13 mph 1012.2mb - 56f
5:20pm  -   -   -  9 13 mph 1012.2mb 56f 56f
5:10pm  -   -   -  9 11 mph 1012.3mb 56f 56f
5:00pm  -   -   -  9 11 mph 1012.3mb 56f 56f
4:50pm 5.5ft 16s 8s 9 11 mph 1012.3mb 56f 56f
4:40pm 5.5ft  -  8s 7 11 mph 1012.5mb 56f 56f
4:30pm  -   -   -  7 11 mph 1012.5mb 56f 56f
4:20pm  -   -   -  7 11 mph 1012.5mb 56f 56f
4:10pm  -   -   -  4 9 mph 1012.6mb 56f 56f
4:00pm  -   -   -  4 7 mph 1012.8mb 56f 56f
3:50pm 5.5ft 16s 8s 7 9 mph 1012.9mb 56f 55f
3:40pm  -   -   -  7 9 mph 1013mb 56f 56f
3:30pm 5.5ft  -  8s 7 9 mph 1013mb 56f 55f
3:20pm  -   -   -  4 9 mph 1013.2mb 56f 55f
3:10pm  -   -   -  4 7 mph 1013.3mb 56f 55f
3:00pm  -   -   -  4 7 mph 1013.4mb 56f 55f
2:50pm 5.5ft 16s 8s 7 9 mph 1013.5mb 55f 55f
2:40pm  -   -   -  7 9 mph 1013.6mb 55f 55f
2:30pm  -   -   -  7 9 mph 1013.8mb 55f 55f
2:20pm  -   -   -  7 9 mph 1013.9mb 55f 54f
2:10pm  -   -   -  7 9 mph 1014mb 55f 54f
2:00pm  -   -   -  7 9 mph 1014.1mb 55f 54f
1:50pm 6ft 9s 8s 7 9 mph 1014.1mb 55f 54f
1:40pm  -   -   -  7 9 mph 1014.2mb 56f 54f
1:30pm  -   -   -  7 9 mph 1014.2mb 56f 54f
1:20pm  -   -   -  7 9 mph 1014.2mb 55f 54f
1:10pm  -   -   -  7 9 mph 1014.3mb 56f 54f
1:00pm  -   -   -  7 9 mph 1014.3mb 56f 54f
12:50pm 7ft 9s 8s 4 9 mph 1014.3mb 56f 54f
12:40pm  -   -   -  4 9 mph 1014.3mb 56f 54f
12:30pm  -   -   -  4 9 mph 1014.4mb - 54f
12:20pm  -   -   -  4 7 mph 1014.4mb 56f 54f
12:10pm  -   -   -  4 7 mph 1014.4mb 56f 54f
12:00pm  -   -   -  7 9 mph 1014.3mb 56f 54f
11:50am 6.5ft 9s 7s 4 9 mph 1014.4mb 56f 54f
11:40am  -   -   -  4 9 mph 1014.4mb 56f 54f
11:30am  -   -   -  7 9 mph 1014.4mb 56f 54f
11:20am  -   -   -  4 9 mph 1014.4mb 55f 54f
11:10am  -   -   -  4 9 mph 1014.5mb 55f 54f
11:00am  -   -   -  7 9 mph 1014.4mb 55f 54f
10:50am 7ft 10s 8s 4 9 mph 1014.4mb 55f 54f
10:40am  -   -   -  7 9 mph 1014.4mb 55f 54f
10:30am  -   -   -  7 9 mph 1014.4mb 55f 54f
10:20am  -   -   -  4 7 mph 1014.2mb 55f 54f
10:10am  -   -   -  7 9 mph 1014.2mb 55f 54f
10:00am  -   -   -  4 7 mph 1014.2mb 55f 54f
9:50am 7ft 10s 8s 7 9 mph 1014.1mb 55f 55f
9:40am  -   -   -  7 9 mph 1014.1mb 55f 55f
9:30am  -   -   -  4 9 mph 1014.1mb 56f 55f
9:20am  -   -   -  4 7 mph 1014mb 56f 55f
9:10am  -   -   -  7 9 mph 1014.1mb 56f 55f
9:00am  -   -   -  7 9 mph 1014mb 56f 55f
8:50am 6.5ft 9s 8s 7 9 mph 1014mb 56f 55f
8:40am 6.5ft  -  8s 7 9 mph 1014mb 56f 55f
8:30am  -   -   -  7 9 mph 1013.9mb 56f 55f
8:20am  -   -   -  7 9 mph 1014mb 56f 55f
8:10am  -   -   -  7 9 mph 1014mb 56f 55f
8:00am  -   -   -  7 9 mph 1013.9mb 56f 55f
7:50am 6.5ft 9s 8s 7 9 mph 1013.9mb 56f 55f
7:40am  -   -   -  7 7 mph 1013.8mb 56f 55f
7:30am  -   -   -  4 7 mph 1013.8mb 56f 55f
7:20am  -   -   -  7 7 mph 1013.8mb 56f 55f
7:10am  -   -   -  7 7 mph 1013.7mb 55f 55f
7:00am  -   -   -  4 7 mph 1013.7mb 55f 55f
6:50am 7ft 10s 8s 4 7 mph 1013.6mb 56f 55f
6:40am  -   -   -  4 7 mph 1013.5mb 56f 55f
6:30am  -   -   -  4 7 mph 1013.4mb 56f 55f
6:20am  -   -   -  2 7 mph 1013.5mb 56f 55f
6:10am  -   -   -  2 4 mph 1013.5mb 56f 55f
6:00am  -   -   -  2 4 mph 1013.3mb 56f 55f
5:50am 6ft 10s 8s 2 4 mph 1013.2mb 56f 55f
5:40am  -   -   -  2 4 mph 1013.2mb 56f 55f
5:30am  -   -   -   -  4 mph 1013.1mb 56f 56f
5:20am  -   -   -  4 7 mph 1013mb 56f 55f
5:10am  -   -   -   -  2 mph 1013mb 56f 56f
5:00am  -   -   -   -  4 mph 1013mb 56f 56f
4:50am 6.5ft 10s 8s 2 4 mph 1013.1mb 56f 56f
4:40am  -   -   -  4 7 mph 1013.1mb 56f 56f
4:30am  -   -   -  4 7 mph 1013.1mb 56f 56f
4:20am  -   -   -  4 7 mph 1013.1mb 56f 56f
4:10am  -   -   -  2 4 mph 1013.1mb 56f 56f
4:00am  -   -   -  2 7 mph 1013.2mb 56f 56f
3:50am 7ft 9s 8s 2 4 mph 1013.2mb 56f 56f
3:40am 7ft  -  8s 2 4 mph 1013.3mb 56f 56f
3:30am  -   -   -  4 7 mph 1013.3mb 56f 56f
3:20am  -   -   -  4 7 mph 1013.3mb 56f 56f
3:10am  -   -   -  4 7 mph 1013.3mb 56f 56f
3:00am  -   -   -  2 7 mph 1013.3mb - 56f
2:50am 6ft 10s 8s 2 4 mph 1013.4mb 56f 56f
2:40am 6ft  -  8s 2 7 mph 1013.4mb 56f 56f
2:30am  -   -   -  2 7 mph 1013.4mb 56f 56f
2:20am  -   -   -  2 7 mph 1013.6mb 56f 56f
2:10am  -   -   -  4 9 mph 1013.6mb 56f 56f
2:00am  -   -   -  4 7 mph 1013.8mb 56f 56f
1:50am 6.5ft 10s 8s 4 7 mph 1013.8mb 56f 56f
1:40am 6.5ft  -  8s 4 7 mph 1013.9mb 56f 56f
1:30am  -   -   -  4 9 mph 1014.1mb 56f 56f
1:20am  -   -   -  7 9 mph 1014.1mb 56f 56f
1:10am  -   -   -  7 9 mph 1014.2mb 56f 56f
1:00am  -   -   -  7 9 mph 1014.3mb 56f 56f
12:50am 6ft 10s 8s 7 9 mph 1014.3mb 56f 56f
12:40am  -   -   -  7 9 mph 1014.5mb 56f 56f
12:30am  -   -   -  7 11 mph 1014.6mb 56f 55f
12:20am  -   -   -  7 9 mph 1014.6mb 56f 55f
12:10am  -   -   -  4 9 mph 1014.6mb 56f 55f
12:00am  -   -   -  4 7 mph 1014.6mb 56f 55f
Fri 08/18 11:50pm 5ft 10s 8s 4 7 mph 1014.6mb 56f 55f
11:40pm  -   -   -  4 7 mph 1014.6mb 55f 55f
11:30pm  -   -   -  2 4 mph 1014.6mb 55f 55f
11:20pm  -   -   -   -  2 mph 1014.7mb 55f 55f
11:10pm  -   -   -   -  2 mph 1014.7mb 55f 55f
11:00pm  -   -   -   -  2 mph 1014.7mb 55f 55f
10:50pm 5.5ft 11s 8s  -  2 mph 1014.8mb 56f 55f
10:40pm 5.5ft  -  8s 2 4 mph 1014.8mb 56f 55f
10:30pm  -   -   -  2 4 mph 1014.7mb 56f 55f
10:20pm  -   -   -  2 4 mph 1014.8mb 55f 55f
10:10pm  -   -   -  2 4 mph 1014.9mb 55f 55f
10:00pm  -   -   -  4 9 mph 1014.9mb 55f 55f
9:50pm 5ft 11s 8s 4 9 mph 1015mb 55f 55f
9:40pm  -   -   -  4 9 mph 1014.9mb 55f 55f
9:30pm  -   -   -  4 7 mph 1014.8mb 56f 55f
9:20pm  -   -   -  4 7 mph 1014.8mb 56f 55f
9:10pm  -   -   -  4 7 mph 1014.8mb 56f 55f
9:00pm  -   -   -  4 7 mph 1014.8mb 56f 55f
8:50pm 5ft 10s 8s 4 7 mph 1014.7mb 57f 55f
8:40pm 5ft  -  8s 2 2 mph 1014.9mb 57f 55f
8:30pm  -   -   -  2 4 mph 1014.9mb 57f 55f
8:20pm  -   -   -  2 4 mph 1014.8mb 57f 55f
8:10pm  -   -   -  2 4 mph 1014.8mb 57f 55f
8:00pm  -   -   -  2 4 mph 1014.9mb 57f 55f
7:50pm 5ft 11s 8s 4 7 mph 1014.9mb 57f 55f
7:40pm  -   -   -  4 9 mph 1014.9mb 55f 56f
7:30pm  -   -   -  7 9 mph 1014.8mb 55f 56f
7:20pm  -   -   -  7 9 mph 1014.7mb 55f 56f
7:10pm  -   -   -  7 9 mph 1014.7mb 56f 56f
7:00pm  -   -   -  7 9 mph 1014.6mb 58f 56f
6:50pm 5ft 11s 8s 4 7 mph 1014.7mb 57f 56f
6:40pm 5ft  -  8s 4 7 mph 1014.6mb 56f 56f
6:30pm  -   -   -  4 7 mph 1014.7mb 56f 56f
6:20pm  -   -   -  4 7 mph 1014.7mb 56f 57f
6:10pm  -   -   -  4 7 mph 1014.9mb 56f 57f
6:00pm  -   -   -  4 7 mph 1014.8mb 57f 57f
5:50pm 5ft 9s 8s 4 7 mph 1014.8mb 58f 57f
5:40pm  -   -   -  4 9 mph 1014.8mb 56f 57f
5:30pm  -   -   -  4 7 mph 1014.8mb 56f 57f
5:20pm  -   -   -  4 7 mph 1014.9mb - 57f
5:10pm  -   -   -  4 7 mph 1014.9mb 56f 57f
5:00pm  -   -   -  4 7 mph 1015mb 56f 57f
4:50pm 5ft 11s 8s 4 7 mph 1015.1mb 56f 58f
4:40pm 5ft  -  8s 4 7 mph 1015.1mb 56f 58f
4:30pm  -   -   -  2 4 mph 1015.3mb 56f 58f
4:20pm  -   -   -  2 4 mph 1015.3mb 56f 58f
4:10pm  -   -   -  2 4 mph 1015.4mb 56f 58f
4:00pm  -   -   -  2 4 mph 1015.4mb 56f 58f
3:40pm  -   -   -  2 2 mph 1015.5mb 57f 58f
3:30pm  -   -   -   -  2 mph 1015.6mb 57f 58f
3:20pm  -   -   -   -  2 mph 1015.6mb 56f 58f
3:10pm  -   -   -   -  2 mph 1015.7mb 56f 58f
3:00pm  -   -   -   -  2 mph 1015.8mb 56f 58f
2:50pm 5.5ft 9s 8s  -  2 mph 1015.9mb 57f 58f
2:40pm  -   -   -   -  4 mph 1016mb 55f 58f
2:30pm  -   -   -  2 2 mph 1016.1mb 56f 58f
2:20pm  -   -   -  2 2 mph 1016.1mb 56f 57f
2:10pm  -   -   -  2 2 mph 1016.2mb 57f 57f
2:00pm  -   -   -  2 2 mph 1016.2mb 55f 57f
1:50pm 5ft 11s 8s 2 4 mph 1016.3mb 56f 57f
1:40pm  -   -   -  2 4 mph 1016.3mb 56f 57f
1:30pm  -   -   -  2 4 mph 1016.3mb 56f 57f
1:20pm  -   -   -  2 4 mph 1016.4mb 55f 57f
1:10pm  -   -   -  2 4 mph 1016.5mb 55f 57f
1:00pm  -   -   -  2 4 mph 1016.5mb 55f 57f
12:50pm 5ft 11s 8s 2 4 mph 1016.5mb 55f 57f
12:40pm  -   -   -  2 4 mph 1016.5mb 55f 57f
12:30pm  -   -   -  2 4 mph 1016.5mb 54f 56f
12:20pm  -   -   -  2 4 mph 1016.5mb 54f 56f
12:10pm  -   -   -  2 2 mph 1016.6mb 54f 56f
12:00pm  -   -   -  2 4 mph 1016.7mb 54f 56f
11:50am 5ft 11s 8s 2 4 mph 1016.8mb 54f 56f
11:40am  -   -   -  2 4 mph 1016.7mb 54f 56f
11:30am  -   -   -  2 4 mph 1016.7mb 54f 56f
11:20am  -   -   -  2 4 mph 1016.8mb 54f 56f
11:10am  -   -   -  2 4 mph 1016.7mb 54f 56f
11:00am  -   -   -  4 7 mph 1016.7mb 54f 56f
10:50am 5ft 10s 8s 4 7 mph 1016.7mb 54f 56f
10:40am  -   -   -  4 7 mph 1016.7mb 54f 56f
10:30am  -   -   -  4 7 mph 1016.8mb 54f 56f
10:20am  -   -   -  4 7 mph 1016.8mb 54f 56f
10:10am  -   -   -  2 4 mph 1016.8mb 54f 56f
10:00am  -   -   -  2 4 mph 1016.9mb 54f 56f
9:50am 5ft 11s 9s 2 4 mph 1016.8mb 54f 56f
9:40am 5ft  -  9s 2 4 mph 1016.7mb 54f 55f
9:30am  -   -   -   -  4 mph 1016.6mb 54f 55f
9:20am  -   -   -  2 4 mph 1016.6mb 54f 55f
9:10am  -   -   -  4 7 mph 1016.6mb 53f 55f
9:00am  -   -   -  4 7 mph 1016.6mb 53f 55f
8:50am 4.5ft 11s 8s 4 7 mph 1016.7mb 53f 55f
8:40am  -   -   -  4 4 mph 1016.7mb 53f 55f
8:30am  -   -   -  2 7 mph 1016.8mb 53f 55f
8:20am  -   -   -  4 7 mph 1016.7mb 53f 55f
8:10am  -   -   -  4 7 mph 1016.6mb 53f 55f
8:00am  -   -   -  4 7 mph 1016.6mb 53f 55f
7:50am 4.5ft 11s 9s 7 9 mph 1016.5mb 53f 55f
7:40am 4.5ft  -  9s 7 7 mph 1016.4mb 53f 54f
7:30am  -   -   -  4 7 mph 1016.3mb 53f 54f
7:20am  -   -   -  4 7 mph 1016.3mb 53f 54f
7:10am  -   -   -  4 7 mph 1016.3mb 53f 54f
7:00am  -   -   -  4 7 mph 1016.3mb 53f 54f
6:50am 4.5ft 12s 9s 4 7 mph 1016.2mb 53f 54f
6:40am 4.5ft  -  9s 4 4 mph 1016.1mb 53f 54f
6:30am  -   -   -  4 7 mph 1016.1mb 53f 54f
6:20am  -   -   -  4 4 mph 1016.1mb 53f 54f
6:10am  -   -   -  4 7 mph 1016mb 53f 54f
6:00am  -   -   -  4 4 mph 1016mb 53f 54f
5:50am 4.5ft 9s 8s 4 4 mph 1016mb 53f 54f
5:40am 4.5ft  -  8s 4 4 mph 1016mb 53f 54f
5:30am  -   -   -  4 7 mph 1015.9mb 53f 54f
5:20am  -   -   -  4 7 mph 1015.9mb - 54f
5:10am  -   -   -  4 7 mph 1015.9mb 53f 54f
5:00am  -   -   -  4 7 mph 1016mb 53f 54f
4:50am 4.5ft 9s 8s 4 4 mph 1015.9mb 53f 54f
4:40am 4.5ft  -  8s 4 7 mph 1015.9mb 54f 54f
4:30am  -   -   -  4 4 mph 1015.9mb 54f 54f
4:20am  -   -   -  4 7 mph 1016mb 54f 54f
4:10am  -   -   -  4 7 mph 1016mb 54f 54f
4:00am  -   -   -  4 7 mph 1016mb 54f 54f
3:50am 4.5ft 15s 8s 2 4 mph 1016mb 54f 55f
3:40am 4.5ft  -  8s 2 4 mph 1016mb 54f 55f
3:30am  -   -   -  2 4 mph 1016mb 54f 55f
3:20am  -   -   -  2 2 mph 1016mb 54f 55f
3:10am  -   -   -  2 2 mph 1016mb 54f 55f
3:00am  -   -   -   -  2 mph 1016.2mb 54f 55f
2:50am 4ft 11s 8s 2 4 mph 1016.2mb 54f 55f
2:40am 4ft  -  8s 2 4 mph 1016.3mb 54f 55f
2:30am  -   -   -   -  4 mph 1016.3mb 54f 55f
2:20am  -   -   -   -  0 mph 1016.3mb 54f 55f
2:10am  -   -   -   -  2 mph 1016.3mb 54f 55f
2:00am  -   -   -   -  2 mph 1016.3mb 54f 55f
1:50am 4.5ft 10s 8s 2 4 mph 1016.4mb 54f 55f
1:40am  -   -   -   -  2 mph 1016.4mb 54f 55f
1:30am  -   -   -   -  2 mph 1016.6mb 54f 55f
1:20am  -   -   -  2 2 mph 1016.6mb 54f 55f
1:10am  -   -   -  2 4 mph 1016.6mb 54f 55f
1:00am  -   -   -  2 4 mph 1016.5mb 53f 55f
12:50am 4.5ft 9s 8s 2 4 mph 1016.6mb 53f 55f
12:40am  -   -   -  2 4 mph 1016.6mb 53f 55f
12:30am  -   -   -  4 4 mph 1016.5mb 53f 55f
12:20am  -   -   -  4 7 mph 1016.5mb 53f 55f
12:10am  -   -   -  4 7 mph 1016.4mb 53f 55f
12:00am  -   -   -  7 9 mph 1016.3mb 53f 55f
Thu 08/17 11:50pm 4.5ft 9s 8s 7 9 mph 1016.2mb 53f 56f
11:40pm 4.5ft  -  8s 7 11 mph 1016.3mb 53f 56f
11:30pm  -   -   -  9 11 mph 1016.2mb 53f 56f
11:20pm  -   -   -  9 11 mph 1016.3mb - 56f
11:10pm  -   -   -  7 9 mph 1016.3mb 54f 56f
11:00pm  -   -   -  9 11 mph 1016.4mb 54f 56f
10:50pm 4.5ft 9s 8s 9 11 mph 1016.5mb 54f 56f
10:40pm 4.5ft  -  8s 9 11 mph 1016.4mb 54f 56f
10:30pm  -   -   -  9 11 mph 1016.4mb 54f 56f
10:20pm  -   -   -  7 11 mph 1016.4mb 54f 56f
10:10pm  -   -   -  7 11 mph 1016.4mb 54f 56f
10:00pm  -   -   -  9 11 mph 1016.3mb 54f 56f
9:50pm 4.5ft 10s 8s 9 13 mph 1016.2mb 54f 56f
9:40pm 4.5ft  -  8s 9 13 mph 1016.2mb 54f 56f
9:30pm  -   -   -  9 11 mph 1016.3mb 54f 56f
9:20pm  -   -   -  9 13 mph 1016.2mb 54f 56f
9:10pm  -   -   -  9 11 mph 1016.2mb 54f 56f
9:00pm  -   -   -  9 11 mph 1016.2mb 54f 57f
8:50pm 4.5ft 10s 8s 7 9 mph 1016.1mb 54f 57f
8:40pm 4.5ft  -  8s 7 9 mph 1016mb 54f 57f
8:30pm  -   -   -  7 9 mph 1016mb 55f 57f
8:20pm  -   -   -  7 11 mph 1016.1mb 54f 57f
8:10pm  -   -   -  7 11 mph 1016mb 54f 57f
8:00pm  -   -   -  7 9 mph 1016.1mb 54f 57f
7:50pm 4.5ft 12s 8s 7 9 mph 1016mb 55f 58f
7:40pm 4.5ft  -  8s 7 9 mph 1015.9mb 55f 58f
7:30pm  -   -   -  7 9 mph 1015.9mb 53f 58f
7:20pm  -   -   -  7 9 mph 1015.9mb 53f 58f
7:10pm  -   -   -  4 7 mph 1015.8mb 53f 58f
7:00pm  -   -   -  4 7 mph 1015.8mb 53f 58f
6:50pm 4.5ft 10s 8s 4 7 mph 1015.8mb - 59f
6:40pm  -   -   -  2 4 mph 1015.8mb 53f 59f
6:30pm  -   -   -  4 7 mph 1015.9mb 53f 59f
6:20pm  -   -   -  4 7 mph 1015.9mb 53f 59f
6:10pm  -   -   -  4 7 mph 1015.9mb 53f 59f
6:00pm  -   -   -  2 4 mph 1015.9mb 53f 59f
5:50pm 5ft 10s 8s 2 4 mph 1015.8mb 53f 59f
5:40pm  -   -   -  2 4 mph 1015.9mb 53f 59f
5:30pm  -   -   -  2 4 mph 1015.9mb 53f 60f
5:20pm  -   -   -  2 4 mph 1016mb 53f 60f
5:10pm  -   -   -  2 4 mph 1016.1mb 55f 59f
5:00pm  -   -   -  2 4 mph 1016.2mb 54f 59f
4:50pm 5ft 8s 8s 2 4 mph 1016.3mb 53f 59f
4:40pm  -   -   -   -  2 mph 1016.3mb 53f 59f
4:30pm  -   -   -  2 4 mph 1016.4mb 53f 59f
4:20pm  -   -   -  2 2 mph 1016.5mb 53f 59f
4:10pm  -   -   -  2 2 mph 1016.6mb 53f 58f
4:00pm  -   -   -   -  2 mph 1016.7mb 53f 58f
3:50pm 4.5ft 10s 8s 2 2 mph 1016.8mb - 58f
3:40pm  -   -   -  2 2 mph 1016.8mb 53f 58f
3:30pm  -   -   -  2 4 mph 1016.9mb 53f 58f
3:20pm  -   -   -  2 4 mph 1017mb 53f 58f
3:10pm  -   -   -  4 4 mph 1017.1mb 53f 57f
3:00pm  -   -   -  4 4 mph 1017.1mb 54f 57f
2:50pm 4.5ft 10s 8s 2 4 mph 1017.2mb 53f 57f
2:40pm 4.5ft  -  8s 4 4 mph 1017.3mb 54f 57f
2:30pm  -   -   -  2 4 mph 1017.3mb 54f 57f
2:20pm  -   -   -  4 4 mph 1017.4mb 54f 57f
2:10pm  -   -   -  4 4 mph 1017.5mb 54f 56f
2:00pm  -   -   -  4 4 mph 1017.7mb 53f 56f
1:50pm 5ft  -  8s 4 4 mph 1017.7mb 54f 56f
1:40pm 5ft 9s  -   -  mph - - -
1:30pm  -   -   -  4 7 mph 1017.7mb 54f 56f
1:20pm  -   -   -  4 4 mph 1017.7mb 53f 56f
1:10pm  -   -   -  4 4 mph 1017.8mb 53f 56f
1:00pm  -   -   -  4 4 mph 1017.9mb 53f 56f
12:50pm 5ft 10s 8s 4 4 mph 1017.9mb 53f 56f
12:40pm  -   -   -  4 7 mph 1017.9mb 53f 56f
12:30pm  -   -   -  4 7 mph 1018mb 53f 56f
12:20pm  -   -   -  4 7 mph 1018.1mb 52f 56f
12:10pm  -   -   -  4 7 mph 1018.1mb 52f 56f
12:00pm  -   -   -  4 7 mph 1018.1mb 52f 56f
11:50am 5ft 10s 8s 4 7 mph 1018.1mb 53f 56f
11:40am  -   -   -  4 7 mph 1018mb 52f 56f
11:30am  -   -   -  4 4 mph 1018.1mb 52f 56f
11:20am  -   -   -  4 7 mph 1017.9mb 52f 56f
11:10am  -   -   -  4 7 mph 1017.9mb 53f 56f
11:00am  -   -   -  2 4 mph 1017.9mb 53f 56f
10:50am 5ft 9s 8s  -  2 mph 1017.7mb 53f 56f
10:40am 5ft  -  8s  -  2 mph 1017.7mb 53f 56f
10:30am  -   -   -  2 4 mph 1017.7mb 53f 56f
10:20am  -   -   -  2 4 mph 1017.7mb 53f 56f
10:10am  -   -   -  4 7 mph 1017.7mb 53f 56f
10:00am  -   -   -  4 7 mph 1017.5mb 53f 56f
9:50am 5.5ft 10s 9s 2 4 mph 1017.3mb 53f 56f
9:40am  -   -   -  2 4 mph 1017.2mb 53f 56f
9:30am  -   -   -  2 4 mph 1017mb 53f 56f
9:20am  -   -   -  2 4 mph 1017.1mb 53f 56f
9:10am  -   -   -  2 7 mph 1017mb 53f 56f
9:00am  -   -   -  2 4 mph 1017mb 53f 56f
8:50am 4.5ft 10s 8s 4 7 mph 1016.9mb 53f 56f
8:40am 4.5ft  -  8s 4 7 mph 1016.8mb 53f 56f
8:30am  -   -   -  4 7 mph 1016.7mb 53f 56f
8:20am  -   -   -  4 7 mph 1016.6mb 53f 56f
8:10am  -   -   -  4 7 mph 1016.6mb 53f 56f
8:00am  -   -   -  4 7 mph 1016.4mb 53f 56f
7:50am 5ft 10s 8s 2 7 mph 1016.3mb 53f 55f
7:40am  -   -   -  2 4 mph 1016.2mb 53f 55f
7:30am  -   -   -  4 7 mph 1016.1mb 53f 55f
7:20am  -   -   -  2 7 mph 1016mb 53f 55f
7:10am  -   -   -  4 7 mph 1015.9mb 53f 55f
7:00am  -   -   -  4 7 mph 1015.9mb 53f 55f
6:50am 5ft 10s 8s 4 7 mph 1015.7mb 53f 55f
6:40am  -   -   -  2 4 mph 1015.7mb 52f 55f
6:30am  -   -   -  4 4 mph 1015.6mb 52f 55f
6:20am  -   -   -  4 4 mph 1015.6mb 53f 55f
6:10am  -   -   -  4 7 mph 1015.4mb 53f 55f
6:00am  -   -   -  4 7 mph 1015.3mb 52f 55f
5:50am 5.5ft 11s 8s 4 9 mph 1015.4mb 53f 55f
5:40am 5.5ft  -  8s 4 7 mph 1015.3mb 53f 55f
5:30am  -   -   -  4 7 mph 1015.3mb 53f 55f
5:20am  -   -   -  4 7 mph 1015.2mb 53f 55f
5:10am  -   -   -  4 7 mph 1015.1mb 53f 56f
5:00am  -   -   -  4 9 mph 1015.2mb 52f 56f
4:50am 5.5ft 9s 8s 7 9 mph 1015.1mb 53f 56f
4:40am 5.5ft  -  8s 7 9 mph 1015.2mb 53f 56f
4:30am  -   -   -  4 7 mph 1015.2mb 52f 55f
4:20am  -   -   -  4 7 mph 1015.2mb 53f 55f
4:10am  -   -   -  4 7 mph 1015.3mb 52f 56f
4:00am  -   -   -  4 7 mph 1015.4mb 52f 56f
3:50am 5ft 10s 8s 4 7 mph 1015.4mb 53f 56f
3:40am 5ft  -  8s 4 7 mph 1015.3mb 52f 55f
3:30am  -   -   -  4 7 mph 1015.4mb 53f 55f
3:20am  -   -   -  2 4 mph 1015.4mb 53f 55f
3:10am  -   -   -  2 4 mph 1015.5mb 53f 56f
3:00am  -   -   -  4 7 mph 1015.6mb 53f 56f
2:50am 5ft 10s 8s 4 7 mph 1015.5mb 53f 56f
2:40am  -   -   -  2 4 mph 1015.5mb 53f 56f
2:30am  -   -   -  2 4 mph 1015.5mb 53f -
2:20am  -   -   -  2 4 mph 1015.5mb 52f 56f
2:10am  -   -   -  2 4 mph 1015.5mb 53f 56f
2:00am  -   -   -  2 7 mph 1015.5mb 53f 56f
1:50am 6ft 10s 8s 2 4 mph 1015.5mb 53f 56f
1:40am  -   -   -  4 7 mph 1015.6mb 53f 57f
1:30am  -   -   -  4 7 mph 1015.5mb 53f 56f
1:20am  -   -   -  4 9 mph 1015.6mb - 57f
1:10am  -   -   -  4 7 mph 1015.6mb 53f 57f
1:00am  -   -   -  2 4 mph 1015.6mb 53f 56f
12:50am 5ft 10s 8s 4 7 mph 1015.7mb 53f 57f
12:40am  -   -   -  4 7 mph 1015.6mb 53f 56f
12:30am  -   -   -  4 7 mph 1015.6mb 53f 56f
12:20am  -   -   -  4 9 mph 1015.5mb 53f 56f
12:10am  -   -   -  4 7 mph 1015.4mb 53f 56f
12:00am  -   -   -  4 7 mph 1015.5mb 53f 56f
Wed 08/16 11:50pm 6ft 10s 8s 4 7 mph 1015.4mb 53f 57f
11:40pm  -   -   -  4 7 mph 1015.3mb 53f 56f
11:30pm  -   -   -  4 7 mph 1015.3mb 53f 57f
11:20pm  -   -   -  4 7 mph 1015.3mb 53f 57f
11:10pm  -   -   -  4 7 mph 1015.3mb - 57f
11:00pm  -   -   -  2 7 mph 1015.4mb 53f 57f
10:50pm 5ft 10s 8s 4 4 mph 1015.4mb 53f 57f
10:40pm  -   -   -  4 7 mph 1015.3mb 53f 57f
10:30pm  -   -   -  4 7 mph 1015.4mb 53f 57f
10:20pm  -   -   -  4 7 mph 1015.4mb 53f 57f
10:10pm  -   -   -  4 7 mph 1015.4mb 53f 57f
10:00pm  -   -   -  4 9 mph 1015.3mb 53f 57f
9:50pm 5ft 9s 7s 4 7 mph 1015.2mb 53f 57f
9:40pm 5ft  -  7s 2 4 mph 1015mb 53f 57f
9:30pm  -   -   -  4 7 mph 1015.1mb - 57f
9:20pm  -   -   -  2 7 mph 1015.1mb 53f 57f
9:10pm  -   -   -  2 4 mph 1015mb 53f 57f
9:00pm  -   -   -  2 4 mph 1014.9mb 52f 57f
8:50pm 5ft 10s 8s 2 4 mph 1014.9mb 52f 56f
8:40pm  -   -   -  2 4 mph 1014.7mb 53f 56f
8:30pm  -   -   -  2 4 mph 1014.7mb 53f 56f
8:20pm  -   -   -  4 4 mph 1014.7mb 53f 56f
8:10pm  -   -   -  4 7 mph 1014.6mb 53f 56f
8:00pm  -   -   -  4 4 mph 1014.5mb 53f 55f
7:50pm 5ft 10s 8s 4 4 mph 1014.4mb 53f 55f
7:40pm  -   -   -  4 4 mph 1014.4mb 53f 55f
7:30pm  -   -   -  4 4 mph 1014.4mb 53f 55f
7:20pm  -   -   -  2 4 mph 1014.4mb 53f 55f
7:10pm  -   -   -  4 4 mph 1014.3mb 53f 55f
7:00pm  -   -   -  4 4 mph 1014.3mb 53f 55f
6:50pm 5ft 10s 7s 4 4 mph 1014.4mb 53f 55f
6:30pm 5ft  -  7s 4 7 mph 1014.5mb 53f 55f
6:20pm  -   -   -  4 4 mph 1014.4mb 52f 55f
6:10pm  -   -   -  4 4 mph 1014.4mb 53f 55f
6:00pm  -   -   -  4 4 mph 1014.5mb 53f 55f
5:50pm 5ft 9s 8s 2 4 mph 1014.6mb 53f 55f
5:40pm  -   -   -  2 4 mph 1014.5mb 53f 55f
5:30pm  -   -   -  2 4 mph 1014.5mb 53f 55f
5:20pm  -   -   -  2 4 mph 1014.6mb 53f 55f
5:10pm  -   -   -  2 4 mph 1014.7mb 53f 55f
5:00pm  -   -   -   -  2 mph 1014.7mb 53f 55f
4:50pm 6ft 10s 8s  -  2 mph 1014.7mb 53f 55f
4:40pm 6ft  -  8s  -  2 mph 1014.9mb 53f 55f
4:30pm  -   -   -   -  4 mph 1014.9mb 53f 55f
4:20pm  -   -   -   -  4 mph 1014.9mb 53f 55f
4:10pm  -   -   -  2 4 mph 1014.9mb 53f 55f
4:00pm  -   -   -  2 7 mph 1014.9mb 53f 55f
3:50pm 6ft 10s 8s 2 4 mph 1015mb 53f 55f
3:40pm 6ft  -  8s 4 4 mph 1015.1mb 53f 55f
3:30pm  -   -   -  4 7 mph 1015mb 53f 55f
3:20pm  -   -   -  4 9 mph 1014.9mb 53f 55f
3:10pm  -   -   -  7 9 mph 1015mb 53f 55f
3:00pm  -   -   -  7 9 mph 1015.1mb 53f 55f
2:50pm 6.5ft 10s 8s 9 11 mph 1015.2mb 53f 55f
2:40pm 6.5ft  -  8s 9 11 mph 1015.3mb 53f 55f
2:30pm  -   -   -  9 13 mph 1015.3mb 53f 55f
2:20pm  -   -   -  9 13 mph 1015.3mb 53f 55f
2:10pm  -   -   -  9 13 mph 1015.3mb 53f 55f